Brenton Reef — KREQ — position and weather

sailwx.info

Track history (hours):
 
Tides and Currents Weather Stations Pressure Air Temp Water Temp Dewpoint Dewpoint Depression Visibility Wind Speed Wind Dir Waves Ship Positions

Brenton Reef

Owner: Seabulk Tankers, Inc., Fort Lauderdale, FL. More information available from US FCC via Universal Licensing System and Coast Guard Vessel Documentation Center.

Last reported at 2018-Jul-23 17:28 UTC. Time now 2018-Jul-23 17:29 UTC.
Position N 39°48' W 075°25'.

Length 189 m; draft 11.3 m.

Type: Tanker. MMSI: 368004000.

Date/timePositionNaut miles runAvg speedWind from/ knotsBaromVisibWave heightAir tempDewpointWater temp
2018-Jul-23 17:28N 39°48' W 075°25'0 0.0
2018-Jul-23 16:55N 39°48' W 075°25'0 0.0
2018-Jul-23 16:19N 39°48' W 075°25'0 0.0
2018-Jul-23 15:49N 39°48' W 075°25'0 0.0
2018-Jul-23 15:25N 39°48' W 075°25'0 0.0
2018-Jul-23 14:58N 39°48' W 075°25'0 0.0
2018-Jul-23 14:28N 39°48' W 075°25'0 0.0
2018-Jul-23 13:58N 39°48' W 075°25'0 0.0
2018-Jul-23 13:28N 39°48' W 075°25'0 0.0
2018-Jul-23 12:58N 39°48' W 075°25'0 0.0
2018-Jul-23 12:25N 39°48' W 075°25'0 0.0
2018-Jul-23 11:49N 39°48' W 075°25'0 0.0
2018-Jul-23 11:25N 39°48' W 075°25'0 0.0
2018-Jul-23 10:25N 39°48' W 075°25'0 0.0
2018-Jul-23 08:49N 39°48' W 075°25'0 0.0
2018-Jul-23 08:22N 39°48' W 075°25'0 0.0
2018-Jul-23 07:49N 39°48' W 075°25'0 0.0
2018-Jul-23 07:19N 39°48' W 075°25'0 0.0
2018-Jul-23 06:55N 39°48' W 075°25'0 0.0
2018-Jul-23 06:25N 39°48' W 075°25'0 0.0
2018-Jul-23 05:55N 39°48' W 075°25'0 0.0
2018-Jul-23 05:28N 39°48' W 075°25'0 0.0
2018-Jul-23 04:55N 39°48' W 075°25'0 0.0
2018-Jul-23 03:43N 39°48' W 075°25'0 0.0
2018-Jul-23 03:25N 39°48' W 075°25'0 0.0
2018-Jul-23 02:55N 39°48' W 075°25'0 0.0
2018-Jul-23 02:16N 39°48' W 075°25'0 0.0
2018-Jul-23 01:52N 39°48' W 075°25'0 0.0
2018-Jul-23 01:22N 39°48' W 075°25'0 0.0
2018-Jul-23 00:58N 39°48' W 075°25'0 0.0
2018-Jul-23 00:22N 39°48' W 075°25'0 0.0
2018-Jul-23 00:00N 39°48' W 075°25'1 1.2
2018-Jul-22 23:30N 39°48' W 075°26'3 6.1
2018-Jul-22 23:00N 39°46' W 075°29'4 7.1
2018-Jul-22 22:31N 39°43' W 075°30'612.3
2018-Jul-22 22:00N 39°37' W 075°35'714.3
2018-Jul-22 21:30N 39°30' W 075°33'713.8
2018-Jul-22 21:00N 39°24' W 075°30'815.1
2018-Jul-22 20:30N 39°18' W 075°23'30810.4
2018-Jul-21 15:00N 34°12' W 076°06'19015.8 230 / 221012.510.8 28.023.726.0
2018-Jul-21 03:00N 31°54' W 078°42'29516.8 180 / 251016.510.8 26.024.625.0
2018-Jul-20 09:25N 27°04' W 079°44'818.6
2018-Jul-20 09:00N 26°56' W 079°44'3118.2
2018-Jul-20 07:17N 26°27' W 079°55'518.4
2018-Jul-20 07:00N 26°22' W 079°57'918.1
2018-Jul-20 06:30N 26°14' W 080°01'815.2
2018-Jul-20 06:01N 26°06' W 080°03'2 4.3
2018-Jul-20 05:30N 26°04' W 080°04'815.6
2018-Jul-20 05:00N 25°58' W 079°59'917.6
2018-Jul-20 04:30N 25°50' W 079°55'917.9
2018-Jul-20 04:00N 25°41' W 079°54'918.0
2018-Jul-20 03:31N 25°32' W 079°55'917.6
2018-Jul-20 03:00N 25°23' W 079°58'  
2018-Jul-17 08:22N 27°37' W 096°39'613.7
2018-Jul-17 07:56N 27°39' W 096°45'613.5
2018-Jul-17 07:30N 27°43' W 096°50'713.5
2018-Jul-17 06:59N 27°47' W 096°56'510.8
2018-Jul-17 06:30N 27°50' W 097°02'511.0
2018-Jul-17 06:00N 27°50' W 097°08'510.0
2018-Jul-17 05:28N 27°49' W 097°14'511.4
2018-Jul-17 05:00N 27°49' W 097°20'4 7.7
2018-Jul-17 04:28N 27°49' W 097°24'0 0.0
2018-Jul-17 03:37N 27°49' W 097°24'124 3.0
2018-Jul-15 10:41N 28°39' W 095°16'313.9
2018-Jul-15 10:30N 28°40' W 095°14'714.0
2018-Jul-15 09:59N 28°45' W 095°07'713.9
2018-Jul-15 09:30N 28°48' W 095°00'713.9
2018-Jul-15 09:00N 28°52' W 094°54'714.0
2018-Jul-15 08:30N 28°56' W 094°47'714.0
2018-Jul-15 08:01N 28°60' W 094°41'714.0
2018-Jul-15 07:30N 29°04' W 094°34'810.9
2018-Jul-15 06:47N 29°10' W 094°29'414.5
2018-Jul-15 06:30N 29°13' W 094°32'713.5
2018-Jul-15 06:00N 29°18' W 094°37'612.3
2018-Jul-15 05:30N 29°21' W 094°44'0 0.7
2018-Jul-15 05:00N 29°21' W 094°44'0 0.0
2018-Jul-15 04:29N 29°21' W 094°44'0 0.0
2018-Jul-15 03:59N 29°21' W 094°44'0 0.0
2018-Jul-15 03:29N 29°21' W 094°44'0 0.0
2018-Jul-15 02:59N 29°21' W 094°44'0 0.0
2018-Jul-15 02:29N 29°21' W 094°44'0 0.0
2018-Jul-15 01:59N 29°21' W 094°44'0 0.0
2018-Jul-15 01:29N 29°21' W 094°44'0 0.1
2018-Jul-15 00:59N 29°21' W 094°44'0 0.1
2018-Jul-15 00:29N 29°21' W 094°44'0 0.0
2018-Jul-14 23:59N 29°21' W 094°44'0 0.1
2018-Jul-14 23:29N 29°21' W 094°44'0 0.1
2018-Jul-14 22:59N 29°21' W 094°44'0 0.1
2018-Jul-14 22:26N 29°21' W 094°44'0 0.0
2018-Jul-14 21:59N 29°21' W 094°44'0 0.0
2018-Jul-14 21:29N 29°21' W 094°44'0 0.0
2018-Jul-14 20:59N 29°21' W 094°44'0 0.0
2018-Jul-14 20:29N 29°21' W 094°44'0 0.0
2018-Jul-14 19:56N 29°21' W 094°44'0 0.0
2018-Jul-14 19:29N 29°21' W 094°44'0 0.0
2018-Jul-14 18:59N 29°21' W 094°44'0 0.1
2018-Jul-14 18:29N 29°21' W 094°44'0 0.0
2018-Jul-14 17:59N 29°21' W 094°44'0 0.0
2018-Jul-14 17:29N 29°21' W 094°44'0 0.0
2018-Jul-14 16:59N 29°21' W 094°44'0 0.0
2018-Jul-14 16:28N 29°21' W 094°44'0 0.0
2018-Jul-14 15:58N 29°21' W 094°44'0 0.1
2018-Jul-14 15:29N 29°21' W 094°44'1 1.8
2018-Jul-14 15:00N 29°21' W 094°43'510.6
2018-Jul-14 14:30N 29°19' W 094°38'1111.4
2018-Jul-14 13:30N 29°12' W 094°27'  
Track history (hours):
 
Tides and Currents Weather Stations Pressure Air Temp Water Temp Dewpoint Dewpoint Depression Visibility Wind Speed Wind Dir Waves Ship Positions

Brenton Reef

Owner: Seabulk Tankers, Inc., Fort Lauderdale, FL. More information available from US FCC via Universal Licensing System and Coast Guard Vessel Documentation Center.

Last reported at 2018-Jul-23 17:28 UTC. Time now 2018-Jul-23 17:29 UTC.
Position N 39°48' W 075°25'.

Length 189 m; draft 11.3 m.

Type: Tanker. MMSI: 368004000.

Date/timePositionNaut miles runAvg speedWind from/ knotsBaromVisibWave heightAir tempDewpointWater temp
2018-Jul-23 17:28N 39°48' W 075°25'0 0.0
2018-Jul-23 16:55N 39°48' W 075°25'0 0.0
2018-Jul-23 16:19N 39°48' W 075°25'0 0.0
2018-Jul-23 15:49N 39°48' W 075°25'0 0.0
2018-Jul-23 15:25N 39°48' W 075°25'0 0.0
2018-Jul-23 14:58N 39°48' W 075°25'0 0.0
2018-Jul-23 14:28N 39°48' W 075°25'0 0.0
2018-Jul-23 13:58N 39°48' W 075°25'0 0.0
2018-Jul-23 13:28N 39°48' W 075°25'0 0.0
2018-Jul-23 12:58N 39°48' W 075°25'0 0.0
2018-Jul-23 12:25N 39°48' W 075°25'0 0.0
2018-Jul-23 11:49N 39°48' W 075°25'0 0.0
2018-Jul-23 11:25N 39°48' W 075°25'0 0.0
2018-Jul-23 10:25N 39°48' W 075°25'0 0.0
2018-Jul-23 08:49N 39°48' W 075°25'0 0.0
2018-Jul-23 08:22N 39°48' W 075°25'0 0.0
2018-Jul-23 07:49N 39°48' W 075°25'0 0.0
2018-Jul-23 07:19N 39°48' W 075°25'0 0.0
2018-Jul-23 06:55N 39°48' W 075°25'0 0.0
2018-Jul-23 06:25N 39°48' W 075°25'0 0.0
2018-Jul-23 05:55N 39°48' W 075°25'0 0.0
2018-Jul-23 05:28N 39°48' W 075°25'0 0.0
2018-Jul-23 04:55N 39°48' W 075°25'0 0.0
2018-Jul-23 03:43N 39°48' W 075°25'0 0.0
2018-Jul-23 03:25N 39°48' W 075°25'0 0.0
2018-Jul-23 02:55N 39°48' W 075°25'0 0.0
2018-Jul-23 02:16N 39°48' W 075°25'0 0.0
2018-Jul-23 01:52N 39°48' W 075°25'0 0.0
2018-Jul-23 01:22N 39°48' W 075°25'0 0.0
2018-Jul-23 00:58N 39°48' W 075°25'0 0.0
2018-Jul-23 00:22N 39°48' W 075°25'0 0.0
2018-Jul-23 00:00N 39°48' W 075°25'1 1.2
2018-Jul-22 23:30N 39°48' W 075°26'3 6.1
2018-Jul-22 23:00N 39°46' W 075°29'4 7.1
2018-Jul-22 22:31N 39°43' W 075°30'612.3
2018-Jul-22 22:00N 39°37' W 075°35'714.3
2018-Jul-22 21:30N 39°30' W 075°33'713.8
2018-Jul-22 21:00N 39°24' W 075°30'815.1
2018-Jul-22 20:30N 39°18' W 075°23'30810.4
2018-Jul-21 15:00N 34°12' W 076°06'19015.8 230 / 221012.510.8 28.023.726.0
2018-Jul-21 03:00N 31°54' W 078°42'29516.8 180 / 251016.510.8 26.024.625.0
2018-Jul-20 09:25N 27°04' W 079°44'818.6
2018-Jul-20 09:00N 26°56' W 079°44'3118.2
2018-Jul-20 07:17N 26°27' W 079°55'518.4
2018-Jul-20 07:00N 26°22' W 079°57'918.1
2018-Jul-20 06:30N 26°14' W 080°01'815.2
2018-Jul-20 06:01N 26°06' W 080°03'2 4.3
2018-Jul-20 05:30N 26°04' W 080°04'815.6
2018-Jul-20 05:00N 25°58' W 079°59'917.6
2018-Jul-20 04:30N 25°50' W 079°55'917.9
2018-Jul-20 04:00N 25°41' W 079°54'918.0
2018-Jul-20 03:31N 25°32' W 079°55'917.6
2018-Jul-20 03:00N 25°23' W 079°58'  
2018-Jul-17 08:22N 27°37' W 096°39'613.7
2018-Jul-17 07:56N 27°39' W 096°45'613.5
2018-Jul-17 07:30N 27°43' W 096°50'713.5
2018-Jul-17 06:59N 27°47' W 096°56'510.8
2018-Jul-17 06:30N 27°50' W 097°02'511.0
2018-Jul-17 06:00N 27°50' W 097°08'510.0
2018-Jul-17 05:28N 27°49' W 097°14'511.4
2018-Jul-17 05:00N 27°49' W 097°20'4 7.7
2018-Jul-17 04:28N 27°49' W 097°24'0 0.0
2018-Jul-17 03:37N 27°49' W 097°24'124 3.0
2018-Jul-15 10:41N 28°39' W 095°16'313.9
2018-Jul-15 10:30N 28°40' W 095°14'714.0
2018-Jul-15 09:59N 28°45' W 095°07'713.9
2018-Jul-15 09:30N 28°48' W 095°00'713.9
2018-Jul-15 09:00N 28°52' W 094°54'714.0
2018-Jul-15 08:30N 28°56' W 094°47'714.0
2018-Jul-15 08:01N 28°60' W 094°41'714.0
2018-Jul-15 07:30N 29°04' W 094°34'810.9
2018-Jul-15 06:47N 29°10' W 094°29'414.5
2018-Jul-15 06:30N 29°13' W 094°32'713.5
2018-Jul-15 06:00N 29°18' W 094°37'612.3
2018-Jul-15 05:30N 29°21' W 094°44'0 0.7
2018-Jul-15 05:00N 29°21' W 094°44'0 0.0
2018-Jul-15 04:29N 29°21' W 094°44'0 0.0
2018-Jul-15 03:59N 29°21' W 094°44'0 0.0
2018-Jul-15 03:29N 29°21' W 094°44'0 0.0
2018-Jul-15 02:59N 29°21' W 094°44'0 0.0
2018-Jul-15 02:29N 29°21' W 094°44'0 0.0
2018-Jul-15 01:59N 29°21' W 094°44'0 0.0
2018-Jul-15 01:29N 29°21' W 094°44'0 0.1
2018-Jul-15 00:59N 29°21' W 094°44'0 0.1
2018-Jul-15 00:29N 29°21' W 094°44'0 0.0
2018-Jul-14 23:59N 29°21' W 094°44'0 0.1
2018-Jul-14 23:29N 29°21' W 094°44'0 0.1
2018-Jul-14 22:59N 29°21' W 094°44'0 0.1
2018-Jul-14 22:26N 29°21' W 094°44'0 0.0
2018-Jul-14 21:59N 29°21' W 094°44'0 0.0
2018-Jul-14 21:29N 29°21' W 094°44'0 0.0
2018-Jul-14 20:59N 29°21' W 094°44'0 0.0
2018-Jul-14 20:29N 29°21' W 094°44'0 0.0
2018-Jul-14 19:56N 29°21' W 094°44'0 0.0
2018-Jul-14 19:29N 29°21' W 094°44'0 0.0
2018-Jul-14 18:59N 29°21' W 094°44'0 0.1
2018-Jul-14 18:29N 29°21' W 094°44'0 0.0
2018-Jul-14 17:59N 29°21' W 094°44'0 0.0
2018-Jul-14 17:29N 29°21' W 094°44'0 0.0
2018-Jul-14 16:59N 29°21' W 094°44'0 0.0
2018-Jul-14 16:28N 29°21' W 094°44'0 0.0
2018-Jul-14 15:58N 29°21' W 094°44'0 0.1
2018-Jul-14 15:29N 29°21' W 094°44'1 1.8
2018-Jul-14 15:00N 29°21' W 094°43'510.6
2018-Jul-14 14:30N 29°19' W 094°38'1111.4
2018-Jul-14 13:30N 29°12' W 094°27'  

Dump ship's entire track history